createdAt,value
2022-08-20T00:00:03.211Z,953.71
2022-08-20T00:05:03.411Z,953.71
2022-08-20T00:10:03.141Z,953.71
2022-08-20T00:15:03.249Z,953.69
2022-08-20T00:20:03.147Z,953.67
2022-08-20T00:25:03.990Z,953.63
2022-08-20T00:30:03.139Z,953.59
2022-08-20T00:35:03.043Z,953.55
2022-08-20T00:40:03.378Z,953.55
2022-08-20T00:45:03.165Z,953.49
2022-08-20T00:50:03.194Z,953.53
2022-08-20T00:55:03.146Z,953.49
2022-08-20T01:00:03.298Z,953.49
2022-08-20T01:05:03.039Z,953.42
2022-08-20T01:10:03.398Z,953.38
2022-08-20T01:15:03.075Z,953.44
2022-08-20T01:20:03.265Z,953.46
2022-08-20T01:25:03.085Z,953.49
2022-08-20T01:30:06.051Z,953.38
2022-08-20T01:35:03.102Z,953.34
2022-08-20T01:40:03.560Z,953.38
2022-08-20T01:45:04.252Z,953.38
2022-08-20T01:50:03.154Z,953.42
2022-08-20T01:55:03.213Z,953.30
2022-08-20T02:00:03.185Z,953.30
2022-08-20T02:05:02.998Z,953.24
2022-08-20T02:10:03.215Z,953.18
2022-08-20T02:15:02.986Z,953.10
2022-08-20T02:20:03.181Z,953.12
2022-08-20T02:25:03.145Z,953.08
2022-08-20T02:30:03.107Z,953.02
2022-08-20T02:35:03.076Z,953.04
2022-08-20T02:40:03.254Z,952.98
2022-08-20T02:45:03.145Z,953.02
2022-08-20T02:50:03.224Z,953.04
2022-08-20T02:55:03.047Z,952.98
2022-08-20T03:00:03.222Z,952.93
2022-08-20T03:05:03.027Z,952.85
2022-08-20T03:10:03.165Z,952.83
2022-08-20T03:15:03.056Z,952.77
2022-08-20T03:20:04.318Z,952.83
2022-08-20T03:25:02.977Z,952.77
2022-08-20T03:30:03.188Z,952.75
2022-08-20T03:35:08.327Z,952.73
2022-08-20T03:40:03.423Z,952.67
2022-08-20T03:45:02.986Z,952.51
2022-08-20T03:50:03.178Z,952.49
2022-08-20T03:55:02.999Z,952.47
2022-08-20T04:00:03.080Z,952.44
2022-08-20T04:05:03.031Z,952.34
2022-08-20T04:10:13.833Z,952.28
2022-08-20T04:15:02.957Z,952.14
2022-08-20T04:20:08.249Z,952.10
2022-08-20T04:25:03.071Z,952.06
2022-08-20T04:30:03.311Z,952.00
2022-08-20T04:35:03.019Z,951.96
2022-08-20T04:40:03.256Z,951.92
2022-08-20T04:45:03.042Z,951.87
2022-08-20T04:50:03.169Z,951.81
2022-08-20T04:55:02.993Z,951.77
2022-08-20T05:00:03.186Z,951.77
2022-08-20T05:05:03.038Z,951.73
2022-08-20T05:10:03.155Z,951.71
2022-08-20T05:15:03.029Z,951.67
2022-08-20T05:20:03.123Z,951.65
2022-08-20T05:25:03.206Z,951.59
2022-08-20T05:30:03.092Z,951.49
2022-08-20T05:35:02.967Z,951.44
2022-08-20T05:40:03.345Z,951.36
2022-08-20T05:45:03.057Z,951.34
2022-08-20T05:50:03.150Z,951.20
2022-08-20T05:55:02.934Z,951.20
2022-08-20T06:00:03.280Z,951.14
2022-08-20T06:05:03.129Z,951.10
2022-08-20T06:10:03.243Z,951.00
2022-08-20T06:15:03.009Z,950.92
2022-08-20T06:20:03.081Z,950.88
2022-08-20T06:25:02.997Z,950.85
2022-08-20T06:30:03.238Z,950.87
2022-08-20T06:35:03.127Z,950.87
2022-08-20T06:40:03.455Z,950.87
2022-08-20T06:45:03.071Z,950.87
2022-08-20T06:50:03.114Z,950.79
2022-08-20T06:55:03.005Z,950.77
2022-08-20T07:00:03.171Z,950.79
2022-08-20T07:05:03.033Z,950.77
2022-08-20T07:10:03.150Z,950.75
2022-08-20T07:15:03.057Z,950.73
2022-08-20T07:20:08.152Z,950.69
2022-08-20T07:25:03.018Z,950.73
2022-08-20T07:30:03.214Z,950.69
2022-08-20T07:35:03.219Z,950.67
2022-08-20T07:40:03.417Z,950.71
2022-08-20T07:45:03.042Z,950.73
2022-08-20T07:50:03.184Z,950.73
2022-08-20T07:55:03.004Z,950.77
2022-08-20T08:00:03.113Z,950.81
2022-08-20T08:05:02.930Z,950.81
2022-08-20T08:10:03.116Z,950.87
2022-08-20T08:15:03.033Z,950.88
2022-08-20T08:20:03.065Z,950.98
2022-08-20T08:25:03.023Z,951.02
2022-08-20T08:30:03.087Z,951.02
2022-08-20T08:35:03.019Z,951.06
2022-08-20T08:40:03.158Z,951.18
2022-08-20T08:45:03.010Z,951.22
2022-08-20T08:50:03.146Z,951.32
2022-08-20T08:55:03.005Z,951.20
2022-08-20T09:00:04.517Z,951.34
2022-08-20T09:05:03.035Z,951.42
2022-08-20T09:10:03.221Z,951.51
2022-08-20T09:15:03.027Z,951.65
2022-08-20T09:20:03.068Z,951.75
2022-08-20T09:25:03.163Z,951.75
2022-08-20T09:30:03.312Z,951.73
2022-08-20T09:35:05.638Z,951.73
2022-08-20T09:40:03.183Z,951.77
2022-08-20T09:45:03.061Z,951.87
2022-08-20T09:50:03.236Z,951.89
2022-08-20T09:55:03.011Z,951.91
2022-08-20T10:00:03.214Z,951.92
2022-08-20T10:05:03.049Z,951.92
2022-08-20T10:10:03.100Z,951.94
2022-08-20T10:15:03.236Z,952.00
2022-08-20T10:20:02.982Z,952.02
2022-08-20T10:25:02.931Z,952.00
2022-08-20T10:30:03.193Z,952.06
2022-08-20T10:35:03.137Z,952.10
2022-08-20T10:40:03.429Z,952.12
2022-08-20T10:45:02.996Z,952.14
2022-08-20T10:50:03.176Z,952.22
2022-08-20T10:55:03.007Z,952.16
2022-08-20T11:00:03.240Z,952.18
2022-08-20T11:05:03.023Z,952.26
2022-08-20T11:10:03.138Z,952.34
2022-08-20T11:15:03.060Z,952.38
2022-08-20T11:20:03.154Z,952.44
2022-08-20T11:25:03.041Z,952.46
2022-08-20T11:30:03.451Z,952.46
2022-08-20T11:35:19.091Z,952.47
2022-08-20T11:40:03.261Z,952.59
2022-08-20T11:45:03.020Z,952.67
2022-08-20T11:50:03.235Z,952.71
2022-08-20T11:55:03.053Z,952.85
2022-08-20T12:00:03.207Z,952.94
2022-08-20T12:05:03.085Z,952.93
2022-08-20T12:10:03.165Z,952.98
2022-08-20T12:15:03.054Z,953.06
2022-08-20T12:20:08.203Z,953.16
2022-08-20T12:25:03.019Z,953.24
2022-08-20T12:30:03.097Z,953.30
2022-08-20T12:35:03.027Z,953.30
2022-08-20T12:40:03.321Z,953.32
2022-08-20T12:45:02.949Z,953.26
2022-08-20T12:50:03.170Z,953.26
2022-08-20T12:55:03.173Z,953.30
2022-08-20T13:00:03.655Z,953.36
2022-08-20T13:05:05.120Z,953.46
2022-08-20T13:10:03.187Z,953.46
2022-08-20T13:15:03.021Z,953.40
2022-08-20T13:20:03.187Z,953.38
2022-08-20T13:25:03.034Z,953.42
2022-08-20T13:30:03.206Z,953.42
2022-08-20T13:35:03.018Z,953.34
2022-08-20T13:40:03.224Z,953.30
2022-08-20T13:45:03.011Z,953.32
2022-08-20T13:50:03.269Z,953.36
2022-08-20T13:55:05.838Z,953.44
2022-08-20T14:00:03.207Z,953.49
2022-08-20T14:05:03.120Z,953.48
2022-08-20T14:10:03.210Z,953.36
2022-08-20T14:15:02.991Z,953.40
2022-08-20T14:20:03.136Z,953.28
2022-08-20T14:25:03.076Z,953.22
2022-08-20T14:30:03.439Z,953.14
2022-08-20T14:35:03.154Z,952.98
2022-08-20T14:40:03.259Z,952.91
2022-08-20T14:45:03.009Z,952.87
2022-08-20T14:50:04.490Z,952.81
2022-08-20T14:55:03.038Z,952.75
2022-08-20T15:00:03.204Z,952.75
2022-08-20T15:05:03.020Z,952.73
2022-08-20T15:10:03.183Z,952.65
2022-08-20T15:15:04.728Z,952.63
2022-08-20T15:20:03.160Z,952.49
2022-08-20T15:25:03.068Z,952.46
2022-08-20T15:30:03.359Z,952.32
2022-08-20T15:35:03.076Z,952.24
2022-08-20T15:40:03.319Z,952.14
2022-08-20T15:45:02.990Z,952.10
2022-08-20T15:50:03.276Z,952.06
2022-08-20T15:55:03.026Z,951.92
2022-08-20T16:00:03.179Z,951.89
2022-08-20T16:05:08.034Z,951.81
2022-08-20T16:10:03.151Z,951.79
2022-08-20T16:15:03.064Z,951.73
2022-08-20T16:20:03.194Z,951.65
2022-08-20T16:25:03.211Z,951.53
2022-08-20T16:30:03.397Z,951.53
2022-08-20T16:35:03.003Z,951.51
2022-08-20T16:40:03.147Z,951.42
2022-08-20T16:45:03.067Z,951.30
2022-08-20T16:50:03.143Z,951.12
2022-08-20T16:55:03.011Z,951.06
2022-08-20T17:00:03.134Z,951.00
2022-08-20T17:05:04.685Z,950.90
2022-08-20T17:10:03.389Z,950.81
2022-08-20T17:15:02.983Z,950.75
2022-08-20T17:20:03.097Z,950.67
2022-08-20T17:25:03.162Z,950.65
2022-08-20T17:30:03.139Z,950.55
2022-08-20T17:35:02.996Z,950.49
2022-08-20T17:40:03.270Z,950.57
2022-08-20T17:45:03.034Z,950.47
2022-08-20T17:50:08.124Z,950.37
2022-08-20T17:55:03.126Z,950.32
2022-08-20T18:00:03.295Z,950.32
2022-08-20T18:05:03.075Z,950.28
2022-08-20T18:10:03.210Z,950.26
2022-08-20T18:15:03.253Z,950.26
2022-08-20T18:20:08.291Z,950.24
2022-08-20T18:25:03.016Z,950.18
2022-08-20T18:30:03.422Z,950.16
2022-08-20T18:35:04.020Z,950.12
2022-08-20T18:40:03.351Z,950.10
2022-08-20T18:45:03.155Z,950.14
2022-08-20T18:50:03.349Z,950.18
2022-08-20T18:55:03.068Z,950.16
2022-08-20T19:00:03.431Z,950.22
2022-08-20T19:05:03.123Z,950.22
2022-08-20T19:10:03.157Z,950.24
2022-08-20T19:15:02.988Z,950.26
2022-08-20T19:20:03.154Z,950.20
2022-08-20T19:25:03.074Z,950.22
2022-08-20T19:30:03.261Z,950.18
2022-08-20T19:35:03.065Z,950.22
2022-08-20T19:40:03.342Z,950.20
2022-08-20T19:45:03.130Z,950.18
2022-08-20T19:50:03.261Z,950.14
2022-08-20T19:55:04.174Z,950.16
2022-08-20T20:00:03.215Z,950.16
2022-08-20T20:05:03.053Z,950.18
2022-08-20T20:10:04.236Z,950.20
2022-08-20T20:15:02.966Z,950.24
2022-08-20T20:20:03.381Z,950.30
2022-08-20T20:25:02.945Z,950.28
2022-08-20T20:30:03.231Z,950.33
2022-08-20T20:35:03.058Z,950.35
2022-08-20T20:40:03.287Z,950.35
2022-08-20T20:45:03.027Z,950.32
2022-08-20T20:50:03.209Z,950.33
2022-08-20T20:55:03.128Z,950.35
2022-08-20T21:00:03.227Z,950.39
2022-08-20T21:05:08.041Z,950.41
2022-08-20T21:10:03.179Z,950.41
2022-08-20T21:15:03.228Z,950.45
2022-08-20T21:20:03.262Z,950.45
2022-08-20T21:25:03.095Z,950.45
2022-08-20T21:30:03.157Z,950.49
2022-08-20T21:35:03.027Z,950.51
2022-08-20T21:40:03.156Z,950.45
2022-08-20T21:45:03.286Z,950.49
2022-08-20T21:50:03.205Z,950.49
2022-08-20T21:55:03.014Z,950.49
2022-08-20T22:00:03.200Z,950.51
2022-08-20T22:05:03.133Z,950.53
2022-08-20T22:10:03.259Z,950.55
2022-08-20T22:15:03.085Z,950.57
2022-08-20T22:20:04.321Z,950.65
2022-08-20T22:25:03.079Z,950.67
2022-08-20T22:30:03.433Z,950.67
2022-08-20T22:35:03.076Z,950.75
2022-08-20T22:40:03.301Z,950.81
2022-08-20T22:45:03.011Z,950.85
2022-08-20T22:50:03.175Z,950.88
2022-08-20T22:55:03.066Z,950.92
2022-08-20T23:00:03.339Z,950.98
2022-08-20T23:05:02.995Z,951.00
2022-08-20T23:10:03.139Z,951.06
2022-08-20T23:15:03.175Z,951.12
2022-08-20T23:20:03.262Z,951.18
2022-08-20T23:25:03.003Z,951.18
2022-08-20T23:30:03.357Z,951.22
2022-08-20T23:35:07.965Z,951.34
2022-08-20T23:40:03.457Z,951.34
2022-08-20T23:45:03.093Z,951.34
2022-08-20T23:50:03.374Z,951.36
2022-08-20T23:55:03.047Z,951.34
